Time;durP1;ratioP1;P1;durP2;ratioP2;P2;SDS_P1;SDS_P2;PMS_P1;PMS_P2;Temp;Humidity;BMP_temperature;BMP_pressure;BME280_temperature;BME280_humidity;BME280_pressure;Samples;Min_cycle;Max_cycle;Signal;HPM_P1;HPM_P2
2022/08/31 00:04:01;;;;;;;0.28;0.28;;;16.70;99.90;;;;;;5114671;28;20046;-76
2022/08/31 00:06:29;;;;;;;1.40;0.60;;;16.70;99.90;;;;;;5114791;28;20476;-71
2022/08/31 00:08:55;;;;;;;0.57;0.57;;;16.70;99.90;;;;;;5114564;28;20045;-75
2022/08/31 00:11:27;;;;;;;0.43;0.32;;;16.60;99.90;;;;;;5096376;28;20102;-77
2022/08/31 00:13:55;;;;;;;0.75;0.73;;;16.60;99.90;;;;;;5114494;28;20068;-71
2022/08/31 00:16:22;;;;;;;0.20;0.20;;;16.70;99.90;;;;;;5114423;28;20555;-77
2022/08/31 00:18:51;;;;;;;0.20;0.20;;;16.70;99.90;;;;;;5114474;28;20027;-77
2022/08/31 00:21:19;;;;;;;;;;;16.70;99.90;;;;;;5114977;28;20019;-74
2022/08/31 00:23:45;;;;;;;0.57;0.57;;;16.70;99.90;;;;;;5096141;28;20048;-77
2022/08/31 00:26:10;;;;;;;0.32;0.32;;;16.60;99.90;;;;;;5114570;28;20053;-78
2022/08/31 00:28:36;;;;;;;0.35;0.30;;;16.70;99.90;;;;;;5114303;28;20502;-76
2022/08/31 00:31:02;;;;;;;0.47;0.47;;;16.60;99.90;;;;;;5114307;28;20016;-74
2022/08/31 00:33:27;;;;;;;0.30;0.30;;;16.70;99.90;;;;;;5114194;28;20498;-76
2022/08/31 00:35:53;;;;;;;2.75;1.13;;;16.70;99.90;;;;;;5114052;28;20027;-77
2022/08/31 00:38:19;;;;;;;1.02;0.65;;;16.60;99.90;;;;;;5114249;28;20106;-77
2022/08/31 00:40:45;;;;;;;0.43;0.43;;;16.70;99.90;;;;;;5114189;28;20027;-76
2022/08/31 00:43:38;;;;;;;1.42;0.47;;;16.70;99.90;;;;;;5114185;28;20055;-75
2022/08/31 00:46:05;;;;;;;0.32;0.30;;;16.80;99.90;;;;;;5114056;28;20111;-75
2022/08/31 00:48:30;;;;;;;1.33;1.00;;;16.70;99.90;;;;;;5113938;28;20027;-72
2022/08/31 00:50:57;;;;;;;0.30;0.30;;;16.80;99.90;;;;;;5113776;28;20091;-74
2022/08/31 00:53:23;;;;;;;0.95;0.85;;;16.80;99.90;;;;;;5113877;28;20084;-75
2022/08/31 00:55:50;;;;;;;0.40;0.40;;;16.80;99.90;;;;;;5095679;28;20023;-72
2022/08/31 00:58:16;;;;;;;0.93;0.75;;;16.80;99.90;;;;;;5113937;28;20023;-73
2022/08/31 01:00:42;;;;;;;0.63;0.43;;;16.90;99.90;;;;;;5113905;28;20038;-75
2022/08/31 01:03:08;;;;;;;1.00;1.00;;;16.80;99.90;;;;;;5113623;28;20047;-75
2022/08/31 01:05:36;;;;;;;0.73;0.52;;;16.80;99.90;;;;;;5095310;28;20107;-76
2022/08/31 01:08:03;;;;;;;1.40;1.30;;;16.70;99.90;;;;;;5095303;28;20036;-71
2022/08/31 01:10:35;;;;;;;1.20;0.82;;;16.70;99.90;;;;;;5113694;28;20012;-78
2022/08/31 01:13:02;;;;;;;1.30;0.60;;;16.70;99.90;;;;;;5113734;28;20152;-73
2022/08/31 01:15:30;;;;;;;0.77;0.77;;;16.80;99.90;;;;;;5113665;28;20380;-71
2022/08/31 01:18:01;;;;;;;0.57;0.57;;;16.80;99.90;;;;;;5113693;28;20034;-71
2022/08/31 01:21:12;;;;;;;0.63;0.63;;;16.80;99.90;;;;;;5113708;28;20027;-71
2022/08/31 01:23:41;;;;;;;2.22;1.95;;;16.70;99.90;;;;;;5051479;28;20027;-75
2022/08/31 01:26:09;;;;;;;3.75;1.55;;;16.70;99.90;;;;;;5113819;28;20026;-78
2022/08/31 01:28:35;;;;;;;0.80;0.80;;;16.80;99.90;;;;;;5113356;28;20074;-78
2022/08/31 01:31:07;;;;;;;0.60;0.60;;;17.00;99.90;;;;;;5113513;28;20051;-75
2022/08/31 01:33:34;;;;;;;0.70;0.63;;;16.80;99.90;;;;;;5113553;28;20102;-71
2022/08/31 01:36:01;;;;;;;0.73;0.73;;;16.80;99.90;;;;;;5113468;28;20100;-74
2022/08/31 01:38:28;;;;;;;0.70;0.70;;;16.80;99.90;;;;;;5113627;28;20107;-78
2022/08/31 01:40:56;;;;;;;0.52;0.52;;;16.70;99.90;;;;;;5113432;28;20041;-78
2022/08/31 01:43:22;;;;;;;0.77;0.77;;;16.70;99.90;;;;;;5113463;28;20102;-71
2022/08/31 01:45:49;;;;;;;1.55;0.98;;;16.70;99.90;;;;;;5095035;28;20030;-77
2022/08/31 01:48:15;;;;;;;0.80;0.80;;;16.80;99.90;;;;;;5113168;28;20035;-77
2022/08/31 01:50:41;;;;;;;1.75;0.93;;;16.70;99.90;;;;;;5113303;28;20016;-73
2022/08/31 01:53:07;;;;;;;0.50;0.50;;;16.70;99.90;;;;;;5095131;28;20361;-79
2022/08/31 01:55:32;;;;;;;0.60;0.57;;;16.70;99.90;;;;;;5113612;28;20028;-78
2022/08/31 01:57:59;;;;;;;0.68;0.68;;;16.70;99.90;;;;;;5113550;28;20046;-78
2022/08/31 02:00:27;;;;;;;2.08;0.77;;;16.80;99.90;;;;;;5113292;28;20019;-77
2022/08/31 02:02:54;;;;;;;0.73;0.73;;;16.80;99.90;;;;;;5113179;28;20126;-78
2022/08/31 02:05:20;;;;;;;0.63;0.63;;;16.80;99.90;;;;;;5113098;28;20024;-78
2022/08/31 02:07:46;;;;;;;0.65;0.65;;;16.80;99.90;;;;;;5113233;28;20137;-77
2022/08/31 02:10:11;;;;;;;0.55;0.45;;;16.80;99.90;;;;;;5113162;28;20019;-78
2022/08/31 02:12:37;;;;;;;11.55;2.60;;;16.80;99.90;;;;;;5113114;28;20028;-77
2022/08/31 02:15:03;;;;;;;2.55;1.90;;;16.90;99.90;;;;;;5113219;28;20020;-76
2022/08/31 02:17:29;;;;;;;1.02;0.98;;;16.90;99.90;;;;;;5096263;28;20078;-77
2022/08/31 02:19:55;;;;;;;0.73;0.73;;;16.90;99.90;;;;;;5116768;28;20391;-75
2022/08/31 02:22:20;;;;;;;1.30;1.30;;;17.00;99.90;;;;;;5098451;28;20016;-77
2022/08/31 02:24:46;;;;;;;0.98;0.98;;;17.00;99.90;;;;;;5116784;28;20039;-77
2022/08/31 02:27:12;;;;;;;1.23;1.08;;;;;;;;;;5116715;28;20032;-76
2022/08/31 02:29:38;;;;;;;1.95;0.73;;;17.10;99.90;;;;;;5116696;28;20035;-79
2022/08/31 02:32:03;;;;;;;2.25;0.45;;;17.10;99.90;;;;;;5098377;28;20016;-78
2022/08/31 02:34:29;;;;;;;1.33;1.23;;;17.00;99.90;;;;;;5098500;28;20564;-78
2022/08/31 02:36:55;;;;;;;1.13;0.80;;;17.00;99.90;;;;;;5116452;28;20533;-78
2022/08/31 02:39:21;;;;;;;0.70;0.70;;;17.10;99.90;;;;;;5116380;28;20051;-74
2022/08/31 02:41:47;;;;;;;1.95;1.48;;;17.10;99.90;;;;;;5116250;28;20097;-78
2022/08/31 02:44:13;;;;;;;0.90;0.90;;;17.00;99.90;;;;;;5098068;28;20024;-78
2022/08/31 02:46:38;;;;;;;2.45;0.63;;;17.00;99.90;;;;;;5116298;28;20026;-78
2022/08/31 02:49:04;;;;;;;0.80;0.80;;;17.00;99.90;;;;;;5116190;28;20036;-74
2022/08/31 02:51:30;;;;;;;0.50;0.50;;;17.00;99.90;;;;;;5116343;28;20045;-79
2022/08/31 02:53:56;;;;;;;2.13;1.25;;;17.00;99.90;;;;;;5116132;28;20103;-75
2022/08/31 02:56:22;;;;;;;1.08;0.70;;;17.00;99.90;;;;;;5116052;28;20070;-76
2022/08/31 02:58:53;;;;;;;0.60;0.60;;;17.10;99.90;;;;;;5116227;28;20099;-78
2022/08/31 03:01:22;;;;;;;1.33;1.23;;;17.10;99.90;;;;;;5115952;28;20089;-74
2022/08/31 03:03:48;;;;;;;1.30;1.13;;;17.00;99.90;;;;;;5115964;28;20086;-71
2022/08/31 03:06:14;;;;;;;1.75;1.05;;;17.00;99.90;;;;;;5116071;28;20024;-72
2022/08/31 03:08:41;;;;;;;0.85;0.85;;;16.90;99.90;;;;;;5115816;28;20571;-77
2022/08/31 03:11:07;;;;;;;1.17;1.00;;;17.00;99.90;;;;;;5115791;28;20055;-75
2022/08/31 03:13:35;;;;;;;1.27;1.17;;;17.00;99.90;;;;;;5097402;28;20480;-72
2022/08/31 03:16:01;;;;;;;4.60;1.55;;;17.00;99.90;;;;;;5115697;28;20024;-77
2022/08/31 03:18:27;;;;;;;0.50;0.50;;;17.00;99.90;;;;;;5115701;28;20421;-78
2022/08/31 03:20:52;;;;;;;0.95;0.95;;;17.00;99.90;;;;;;5115652;28;20020;-74
2022/08/31 03:23:18;;;;;;;1.90;0.82;;;17.00;99.90;;;;;;5115928;28;20023;-74
2022/08/31 03:25:44;;;;;;;1.02;1.02;;;;;;;;;;5115519;28;20023;-77
2022/08/31 03:28:10;;;;;;;1.58;1.20;;;17.00;99.90;;;;;;5115441;28;20036;-78
2022/08/31 03:30:36;;;;;;;2.88;1.60;;;17.10;99.90;;;;;;5115795;28;20027;-75
2022/08/31 03:33:02;;;;;;;5.57;1.88;;;17.10;99.90;;;;;;5115266;28;20026;-78
2022/08/31 03:35:28;;;;;;;1.10;1.10;;;17.10;99.90;;;;;;5097276;28;20020;-78
2022/08/31 03:37:54;;;;;;;0.77;0.77;;;17.00;99.90;;;;;;5096961;28;20030;-74
2022/08/31 03:40:20;;;;;;;1.02;1.00;;;17.00;99.90;;;;;;5115230;28;20400;-78
2022/08/31 03:42:46;;;;;;;0.80;0.80;;;16.90;99.90;;;;;;5115196;28;20087;-72
2022/08/31 03:45:13;;;;;;;5.18;1.15;;;16.90;99.90;;;;;;5115202;28;20024;-73
2022/08/31 03:47:40;;;;;;;1.92;1.20;;;16.80;99.90;;;;;;5115060;28;20036;-72
2022/08/31 03:50:07;;;;;;;2.20;1.25;;;16.80;99.90;;;;;;5115038;28;20102;-76
2022/08/31 03:52:33;;;;;;;1.73;1.63;;;16.70;99.90;;;;;;5114774;28;20028;-77
2022/08/31 03:54:59;;;;;;;4.60;1.30;;;16.70;99.90;;;;;;5115005;28;20072;-78
2022/08/31 03:57:25;;;;;;;1.48;1.38;;;16.70;99.90;;;;;;5114819;28;20094;-78
2022/08/31 03:59:57;;;;;;;1.60;1.17;;;16.70;99.90;;;;;;5114857;28;20092;-71
2022/08/31 04:02:24;;;;;;;1.73;0.90;;;16.70;99.90;;;;;;5114731;28;20044;-78
2022/08/31 04:04:52;;;;;;;2.00;1.27;;;17.30;99.90;;;;;;5115232;28;20026;-77
2022/08/31 04:07:19;;;;;;;2.15;1.48;;;16.70;99.90;;;;;;5114808;28;20030;-76
2022/08/31 04:09:46;;;;;;;1.00;1.00;;;16.60;99.90;;;;;;5114836;28;20038;-78
2022/08/31 04:12:13;;;;;;;1.83;1.65;;;16.60;99.90;;;;;;5114674;28;20019;-72
2022/08/31 04:14:39;;;;;;;2.15;1.20;;;16.60;99.90;;;;;;5114837;28;20032;-78
2022/08/31 04:17:07;;;;;;;2.17;1.20;;;16.60;99.90;;;;;;5114624;28;20022;-76
2022/08/31 04:19:33;;;;;;;1.98;0.90;;;16.60;99.90;;;;;;5114579;28;20020;-71
2022/08/31 04:21:58;;;;;;;2.25;1.00;;;16.60;99.90;;;;;;5114505;28;20095;-78
2022/08/31 04:24:24;;;;;;;1.38;1.10;;;16.60;99.90;;;;;;5114426;28;20027;-75
2022/08/31 04:26:51;;;;;;;1.50;1.40;;;16.50;99.90;;;;;;5114347;28;20088;-76
2022/08/31 04:29:17;;;;;;;1.25;1.02;;;16.60;99.90;;;;;;5114122;28;20031;-75
2022/08/31 04:31:42;;;;;;;1.98;1.20;;;16.70;99.90;;;;;;5095927;28;20470;-79
2022/08/31 04:34:08;;;;;;;1.30;1.00;;;16.60;99.90;;;;;;5114390;28;20020;-79
2022/08/31 04:36:34;;;;;;;1.27;1.27;;;16.60;99.90;;;;;;5114261;28;20024;-74
2022/08/31 04:39:02;;;;;;;2.05;1.05;;;16.70;99.90;;;;;;5095930;28;20036;-78
2022/08/31 04:41:30;;;;;;;3.35;1.98;;;16.70;99.90;;;;;;5095323;28;20019;-78
2022/08/31 04:43:58;;;;;;;1.02;1.02;;;16.70;99.90;;;;;;5095789;28;20023;-79
2022/08/31 04:46:25;;;;;;;5.03;1.33;;;16.70;99.90;;;;;;5113907;28;20024;-74
2022/08/31 04:48:52;;;;;;;1.27;1.27;;;16.80;99.90;;;;;;5113852;28;20039;-72
2022/08/31 04:51:26;;;;;;;1.42;1.33;;;16.80;99.90;;;;;;5113956;28;20472;-76
2022/08/31 04:53:53;;;;;;;1.20;1.20;;;16.80;99.90;;;;;;5114213;28;20107;-79
2022/08/31 04:56:23;;;;;;;1.25;1.02;;;16.70;99.90;;;;;;5113972;28;20379;-77
2022/08/31 04:58:55;;;;;;;1.25;1.00;;;16.60;99.90;;;;;;5113809;28;20027;-75
2022/08/31 05:01:24;;;;;;;1.30;1.20;;;16.60;99.90;;;;;;5114039;28;20015;-74
2022/08/31 05:03:51;;;;;;;2.10;1.20;;;16.50;99.90;;;;;;5113556;28;20090;-79
2022/08/31 05:06:20;;;;;;;1.50;1.33;;;16.50;99.90;;;;;;5113770;28;20027;-78
2022/08/31 05:08:46;;;;;;;3.33;3.13;;;16.60;99.90;;;;;;5113611;28;20027;-76
2022/08/31 05:11:15;;;;;;;3.70;3.30;;;16.70;99.90;;;;;;5114101;28;20048;-77
2022/08/31 05:13:41;;;;;;;4.75;3.03;;;16.80;99.90;;;;;;5114044;28;20523;-75
2022/08/31 05:16:09;;;;;;;5.32;2.45;;;17.00;99.90;;;;;;5095591;28;20023;-76
2022/08/31 05:18:39;;;;;;;2.30;1.77;;;16.90;99.90;;;;;;5113998;28;20065;-77
2022/08/31 05:21:18;;;;;;;3.78;3.05;;;16.70;99.90;;;;;;5113765;28;20090;-73
2022/08/31 05:23:47;;;;;;;2.42;1.77;;;16.90;99.90;;;;;;5113610;28;20030;-77
2022/08/31 05:26:23;;;;;;;5.05;2.88;;;16.90;99.90;;;;;;5095472;28;20372;-76
2022/08/31 05:28:49;;;;;;;6.53;2.70;;;16.90;99.90;;;;;;5113786;28;20455;-75
2022/08/31 05:31:15;;;;;;;5.63;3.30;;;16.70;99.90;;;;;;5113711;28;20020;-78
2022/08/31 05:33:41;;;;;;;3.63;2.28;;;17.00;99.90;;;;;;5113612;28;20019;-77
2022/08/31 05:36:08;;;;;;;4.05;2.70;;;17.00;99.90;;;;;;5113571;28;20020;-76
2022/08/31 05:38:35;;;;;;;3.85;2.92;;;16.90;99.90;;;;;;5095465;28;20118;-77
2022/08/31 05:41:01;;;;;;;4.75;3.03;;;16.90;99.90;;;;;;5113645;28;20027;-77
2022/08/31 05:43:27;;;;;;;4.32;3.67;;;17.00;99.90;;;;;;5095182;28;20027;-76
2022/08/31 05:45:54;;;;;;;6.25;4.18;;;17.00;99.90;;;;;;5113565;28;20023;-76
2022/08/31 05:48:20;;;;;;;5.13;3.55;;;17.10;99.90;;;;;;5096047;28;20103;-77
2022/08/31 05:50:46;;;;;;;5.47;3.35;;;17.00;99.90;;;;;;5113477;28;20085;-76
2022/08/31 05:53:12;;;;;;;2.28;1.73;;;17.10;99.90;;;;;;5116110;28;20422;-77
2022/08/31 05:55:38;;;;;;;4.07;2.83;;;17.00;99.90;;;;;;5117371;28;20059;-77
2022/08/31 05:58:04;;;;;;;2.78;2.50;;;17.00;99.90;;;;;;5117393;28;20028;-77
2022/08/31 06:00:31;;;;;;;5.05;2.90;;;16.80;99.90;;;;;;5099142;28;20026;-77
2022/08/31 06:02:57;;;;;;;4.32;2.80;;;16.90;99.90;;;;;;5117375;28;20438;-75
2022/08/31 06:05:22;;;;;;;3.40;1.88;;;17.00;99.90;;;;;;5117687;28;20412;-77
2022/08/31 06:07:48;;;;;;;3.35;2.83;;;17.00;99.90;;;;;;5120687;28;20060;-77
2022/08/31 06:10:14;;;;;;;3.75;2.60;;;17.10;99.90;;;;;;5117909;28;20161;-76
2022/08/31 06:12:42;;;;;;;1.55;1.45;;;17.10;99.90;;;;;;5118696;28;20043;-74
2022/08/31 06:15:09;;;;;;;4.07;2.10;;;17.20;99.90;;;;;;5117966;28;20107;-76
2022/08/31 06:17:36;;;;;;;1.10;0.98;;;17.40;99.90;;;;;;5116729;28;20486;-76
2022/08/31 06:20:03;;;;;;;3.45;3.15;;;17.50;99.90;;;;;;5117326;28;20027;-77
2022/08/31 06:22:29;;;;;;;6.30;2.58;;;17.50;99.90;;;;;;5119481;28;20019;-77
2022/08/31 06:24:55;;;;;;;1.70;1.25;;;17.40;99.90;;;;;;5118543;28;20089;-76
2022/08/31 06:27:21;;;;;;;3.00;2.75;;;17.40;99.90;;;;;;5119042;28;20023;-73
2022/08/31 06:29:48;;;;;;;3.47;2.33;;;17.50;99.90;;;;;;5119065;28;20024;-72
2022/08/31 06:32:14;;;;;;;2.67;1.85;;;17.40;99.90;;;;;;5101667;28;20047;-77
2022/08/31 06:34:41;;;;;;;2.97;2.08;;;17.40;99.90;;;;;;5118148;28;20361;-76
2022/08/31 06:37:10;;;;;;;2.97;2.72;;;17.40;99.90;;;;;;5116937;28;20483;-77
2022/08/31 06:39:37;;;;;;;4.45;2.13;;;17.50;99.90;;;;;;5119168;28;20035;-74
2022/08/31 06:42:02;;;;;;;2.60;1.63;;;17.50;99.90;;;;;;5116914;28;20476;-76
2022/08/31 06:44:28;;;;;;;2.88;2.38;;;17.50;99.90;;;;;;5116759;28;20039;-75
2022/08/31 06:46:54;;;;;;;1.30;1.20;;;17.60;99.90;;;;;;5116682;28;20026;-76
2022/08/31 06:49:21;;;;;;;4.43;3.53;;;17.60;99.90;;;;;;5117171;28;20036;-78
2022/08/31 06:51:48;;;;;;;3.60;2.13;;;17.50;99.90;;;;;;5118284;28;20392;-77
2022/08/31 06:54:14;;;;;;;2.10;1.40;;;17.50;99.90;;;;;;5117697;28;20027;-75
2022/08/31 06:56:40;;;;;;;4.05;3.22;;;17.50;99.90;;;;;;5121160;28;20023;-78
2022/08/31 06:59:07;;;;;;;9.90;4.45;;;17.50;99.90;;;;;;5124007;28;20016;-77
2022/08/31 07:01:34;;;;;;;5.70;4.55;;;17.40;99.90;;;;;;5123670;28;20055;-72
2022/08/31 07:04:03;;;;;;;5.18;4.07;;;17.50;99.90;;;;;;5119576;28;20028;-77
2022/08/31 07:06:33;;;;;;;6.68;4.10;;;17.60;99.90;;;;;;5119794;28;20020;-75
2022/08/31 07:09:02;;;;;;;6.57;2.38;;;17.70;99.90;;;;;;5120491;28;20027;-72
2022/08/31 07:11:48;;;;;;;;;;;17.70;99.90;;;;;;5126145;28;20300;-76
2022/08/31 07:14:20;;;;;;;10.05;1.98;;;17.80;99.90;;;;;;5105907;28;19931;-75
2022/08/31 07:16:46;;;;;;;1.58;1.48;;;17.70;99.90;;;;;;5123551;28;20035;-78
2022/08/31 07:19:13;;;;;;;1.92;1.75;;;17.70;99.90;;;;;;5121175;28;20024;-75
2022/08/31 07:21:51;;;;;;;2.00;1.40;;;17.80;99.90;;;;;;5120253;28;20392;-77
2022/08/31 07:24:23;;;;;;;1.83;1.65;;;17.90;99.90;;;;;;5116844;28;20016;-77
2022/08/31 07:26:53;;;;;;;1.27;1.10;;;17.80;99.90;;;;;;5118290;28;20046;-74
2022/08/31 07:29:20;;;;;;;1.13;1.02;;;18.00;99.90;;;;;;5117436;28;20108;-74
2022/08/31 07:31:46;;;;;;;4.18;1.13;;;18.30;99.90;;;;;;5117542;28;20047;-76
2022/08/31 07:34:32;;;;;;;1.13;1.02;;;18.50;99.90;;;;;;5099168;28;20118;-78
2022/08/31 07:42:33;;;;;;;2.42;1.30;;;19.40;99.90;;;;;;5116532;28;20072;-76
2022/08/31 07:45:01;;;;;;;2.83;1.45;;;19.20;99.90;;;;;;5116024;28;20491;-76
2022/08/31 07:47:28;;;;;;;2.08;1.23;;;19.30;99.90;;;;;;5097094;28;20046;-73
2022/08/31 07:49:57;;;;;;;1.83;1.10;;;19.30;99.90;;;;;;5115781;28;20038;-71
2022/08/31 07:52:27;;;;;;;3.85;0.65;;;19.50;99.90;;;;;;5115923;28;20015;-74
2022/08/31 07:54:55;;;;;;;1.63;0.98;;;19.50;99.90;;;;;;5115442;28;20502;-75
2022/08/31 07:57:24;;;;;;;1.45;1.35;;;19.50;99.90;;;;;;5116858;28;20020;-75
2022/08/31 08:00:03;;;;;;;0.55;0.55;;;19.40;99.90;;;;;;5117896;28;20024;-76
2022/08/31 08:02:29;;;;;;;2.90;1.67;;;19.40;99.90;;;;;;5098569;28;20053;-76
2022/08/31 08:04:55;;;;;;;0.50;0.50;;;19.30;99.90;;;;;;5115404;28;20028;-78
2022/08/31 08:07:21;;;;;;;1.10;1.05;;;19.30;99.90;;;;;;5115036;28;20024;-76
2022/08/31 08:09:48;;;;;;;0.90;0.88;;;19.40;99.90;;;;;;5114862;28;20408;-74
2022/08/31 08:12:14;;;;;;;0.65;0.65;;;19.40;99.90;;;;;;5119288;28;20027;-77
2022/08/31 08:14:39;;;;;;;1.33;1.02;;;19.50;99.90;;;;;;5121602;28;20073;-78
2022/08/31 08:17:07;;;;;;;0.73;0.70;;;19.50;99.90;;;;;;5121470;28;20073;-79
2022/08/31 08:19:33;;;;;;;2.67;1.25;;;19.70;99.90;;;;;;5118931;28;20019;-77
2022/08/31 08:22:01;;;;;;;0.90;0.90;;;19.70;99.90;;;;;;5116047;28;20024;-77
2022/08/31 08:24:28;;;;;;;1.75;1.30;;;19.70;99.90;;;;;;5114374;28;20031;-75
2022/08/31 08:26:53;;;;;;;0.90;0.77;;;19.70;99.90;;;;;;5114832;28;20022;-77
2022/08/31 08:29:20;;;;;;;1.83;0.68;;;19.60;99.90;;;;;;5122369;28;20271;-77
2022/08/31 08:31:51;;;;;;;0.85;0.60;;;19.50;99.90;;;;;;5117952;28;20242;-79
2022/08/31 08:34:18;;;;;;;1.27;1.27;;;19.30;99.90;;;;;;5114773;28;20487;-78
2022/08/31 08:36:45;;;;;;;2.70;1.48;;;19.20;99.90;;;;;;5115757;28;20083;-80
2022/08/31 08:39:11;;;;;;;4.18;0.80;;;19.10;99.90;;;;;;5104153;28;20253;-78
2022/08/31 08:41:39;;;;;;;1.20;1.10;;;19.10;99.90;;;;;;5097604;28;20106;-74
2022/08/31 08:44:11;;;;;;;0.90;0.90;;;19.00;99.90;;;;;;5097826;28;20020;-78
2022/08/31 08:47:03;;;;;;;1.35;1.25;;;19.00;99.90;;;;;;5114814;28;20015;-78
2022/08/31 08:49:36;;;;;;;1.05;1.05;;;18.90;99.90;;;;;;5113919;28;20092;-79
2022/08/31 08:52:11;;;;;;;2.13;1.10;;;19.00;99.90;;;;;;5117406;28;20042;-78
2022/08/31 08:54:40;;;;;;;1.60;0.85;;;19.40;99.90;;;;;;5098501;28;20418;-75
2022/08/31 08:57:13;;;;;;;2.58;1.77;;;19.00;99.90;;;;;;5098493;28;20260;-75
2022/08/31 08:59:43;;;;;;;1.38;0.70;;;19.00;99.90;;;;;;5114121;28;20424;-78
2022/08/31 09:02:14;;;;;;;1.88;1.77;;;18.80;99.90;;;;;;5114255;28;20105;-77
2022/08/31 09:04:52;;;;;;;3.45;1.42;;;18.70;99.90;;;;;;5114288;28;20415;-78
2022/08/31 09:07:36;;;;;;;0.85;0.82;;;18.40;99.90;;;;;;5113839;28;20020;-77
2022/08/31 09:10:24;;;;;;;4.50;2.55;;;18.60;99.90;;;;;;5114231;28;20069;-77
2022/08/31 09:13:19;;;;;;;2.75;1.33;;;18.50;99.90;;;;;;5113681;28;20012;-79
2022/08/31 09:16:19;;;;;;;3.03;1.35;;;18.60;99.90;;;;;;5113664;28;20414;-78
2022/08/31 09:18:55;;;;;;;5.45;2.03;;;18.70;99.90;;;;;;5104280;28;20063;-78
2022/08/31 09:21:28;;;;;;;0.80;0.80;;;18.70;99.90;;;;;;5100059;28;20031;-77
2022/08/31 09:23:58;;;;;;;0.65;0.65;;;18.80;99.90;;;;;;5121429;28;20016;-78
2022/08/31 09:26:24;;;;;;;0.43;0.43;;;18.90;99.90;;;;;;5123846;28;20011;-78
2022/08/31 09:28:51;;;;;;;0.40;0.40;;;19.00;99.90;;;;;;5123757;28;20031;-77
2022/08/31 09:31:33;;;;;;;0.50;0.50;;;19.20;99.90;;;;;;5101991;28;20110;-74
2022/08/31 09:34:00;;;;;;;0.32;0.32;;;19.10;99.90;;;;;;5118508;28;20031;-77
2022/08/31 09:36:33;;;;;;;0.55;0.55;;;19.20;99.90;;;;;;5101121;28;20032;-76
2022/08/31 09:39:29;;;;;;;1.67;1.55;;;19.20;99.90;;;;;;5117798;28;20031;-79
2022/08/31 09:42:02;;;;;;;0.50;0.50;;;19.20;99.90;;;;;;5110750;28;20027;-76
2022/08/31 09:44:38;;;;;;;0.43;0.40;;;19.20;99.90;;;;;;5117886;28;20030;-79
2022/08/31 09:47:13;;;;;;;0.10;0.10;;;19.30;99.90;;;;;;5118553;28;20024;-77
2022/08/31 09:49:52;;;;;;;2.53;0.38;;;19.30;99.90;;;;;;5117374;28;20484;-79
2022/08/31 09:55:12;;;;;;;0.25;0.25;;;19.30;99.90;;;;;;5123113;28;20472;-79
2022/08/31 09:55:30;;;;;;;1.13;0.30;;;19.40;99.90;;;;;;5118885;28;20061;-75
2022/08/31 09:57:58;;;;;;;0.20;0.20;;;19.50;99.90;;;;;;5117817;28;20088;-78
2022/08/31 10:00:43;;;;;;;0.82;0.80;;;19.80;99.90;;;;;;5117350;28;20099;-79
2022/08/31 10:03:29;;;;;;;2.22;0.55;;;20.10;99.90;;;;;;5095677;28;20048;-79
2022/08/31 10:05:55;;;;;;;0.85;0.80;;;20.40;99.90;;;;;;5096668;28;20032;-78
2022/08/31 10:08:45;;;;;;;1.25;0.60;;;20.60;99.90;;;;;;5096510;28;20024;-78
2022/08/31 10:11:16;;;;;;;0.75;0.35;;;21.00;99.90;;;;;;5096930;28;20023;-78
2022/08/31 10:13:59;;;;;;;0.25;0.25;;;21.30;99.90;;;;;;5096736;28;20020;-77
2022/08/31 10:16:33;;;;;;;0.50;0.43;;;21.70;99.90;;;;;;5096610;28;20024;-72
2022/08/31 10:19:01;;;;;;;0.10;0.10;;;22.10;99.90;;;;;;5096616;28;20505;-76
2022/08/31 10:21:50;;;;;;;0.32;0.28;;;22.30;99.90;;;;;;5105778;28;20032;-82
2022/08/31 10:24:33;;;;;;;0.60;0.52;;;22.50;99.90;;;;;;5104765;28;20046;-80
2022/08/31 10:27:19;;;;;;;0.60;0.50;;;24.30;99.90;;;;;;5100214;28;20044;-76
2022/08/31 10:29:50;;;;;;;1.17;0.40;;;23.20;99.90;;;;;;5095664;28;20032;-76
2022/08/31 10:32:44;;;;;;;0.45;0.30;;;23.30;99.90;;;;;;5096037;28;20028;-80
2022/08/31 10:35:21;;;;;;;0.30;0.30;;;23.80;99.90;;;;;;5087186;28;20520;-79
2022/08/31 10:38:22;;;;;;;0.20;0.20;;;23.80;99.90;;;;;;5095590;28;20031;-80
2022/08/31 10:41:08;;;;;;;0.55;0.20;;;24.20;99.90;;;;;;5097454;28;20444;-79
2022/08/31 10:43:47;;;;;;;0.10;0.10;;;24.00;99.90;;;;;;5095682;28;20012;-80
2022/08/31 10:46:14;;;;;;;;;;;24.20;99.90;;;;;;5105227;28;20024;-81
2022/08/31 10:48:45;;;;;;;0.88;0.50;;;24.20;99.90;;;;;;5106492;28;19907;-81
2022/08/31 10:51:46;;;;;;;0.30;0.30;;;25.00;99.90;;;;;;5106536;28;20066;-81
2022/08/31 10:54:27;;;;;;;2.55;0.65;;;25.10;99.90;;;;;;5106472;28;20189;-82
2022/08/31 10:57:27;;;;;;;0.10;0.10;;;24.90;99.90;;;;;;5106176;28;20016;-75
2022/08/31 11:00:08;;;;;;;0.40;0.40;;;25.10;99.90;;;;;;5104445;28;20031;-81
2022/08/31 11:02:36;;;;;;;0.20;0.20;;;24.80;99.90;;;;;;5104002;28;20047;-80
2022/08/31 11:05:27;;;;;;;0.57;0.40;;;24.90;99.90;;;;;;5105250;28;20020;-82
2022/08/31 11:08:01;;;;;;;0.13;0.13;;;24.10;99.90;;;;;;5103271;28;20132;-79
2022/08/31 11:10:50;;;;;;;0.20;0.20;;;23.80;99.90;;;;;;5104712;28;20070;-80
2022/08/31 11:13:37;;;;;;;0.28;0.28;;;24.10;99.90;;;;;;5104623;28;20024;-78
2022/08/31 11:16:25;;;;;;;0.10;0.10;;;25.00;99.90;;;;;;5104529;28;20085;-80
2022/08/31 11:19:19;;;;;;;0.50;0.50;;;25.40;99.90;;;;;;5103162;28;20186;-81
2022/08/31 11:22:02;;;;;;;0.22;0.22;;;25.80;99.90;;;;;;5105024;28;20047;-77
2022/08/31 11:25:02;;;;;;;1.23;0.63;;;26.20;93.60;;;;;;5105221;28;20091;-81
2022/08/31 11:27:56;;;;;;;0.52;0.25;;;26.30;90.30;;;;;;5101118;28;20157;-81
2022/08/31 11:30:31;;;;;;;0.30;0.10;;;26.50;90.20;;;;;;5102096;28;20024;-80
2022/08/31 11:33:08;;;;;;;0.32;0.32;;;27.20;76.80;;;;;;5101232;28;20041;-79
2022/08/31 11:35:48;;;;;;;0.22;0.22;;;27.30;74.30;;;;;;5105841;28;20031;-80
2022/08/31 11:38:47;;;;;;;0.30;0.30;;;27.70;70.30;;;;;;5102932;28;20486;-77
2022/08/31 11:41:52;;;;;;;0.40;0.40;;;28.00;68.00;;;;;;5066296;28;20029;-74
2022/08/31 11:44:38;;;;;;;0.20;0.10;;;28.30;69.90;;;;;;5017397;28;20058;-82
2022/08/31 11:47:11;;;;;;;3.67;0.85;;;28.50;66.00;;;;;;5013209;28;20030;-81
2022/08/31 11:49:47;;;;;;;0.20;0.20;;;28.20;65.50;;;;;;5068039;28;20142;-80
2022/08/31 11:52:46;;;;;;;0.50;0.43;;;27.70;65.30;;;;;;5093804;28;20031;-80
2022/08/31 11:55:27;;;;;;;0.50;0.20;;;27.80;64.70;;;;;;5086515;28;20118;-80
2022/08/31 11:58:11;;;;;;;0.43;0.43;;;28.00;62.80;;;;;;5094949;28;20035;-79
2022/08/31 12:00:44;;;;;;;0.32;0.17;;;27.80;64.10;;;;;;5096039;28;20496;-80
2022/08/31 12:03:32;;;;;;;0.13;0.13;;;27.90;63.50;;;;;;5094611;28;20454;-79
2022/08/31 12:05:58;;;;;;;0.10;0.10;;;28.20;65.40;;;;;;5094976;28;20038;-78
2022/08/31 12:08:33;;;;;;;0.20;0.20;;;28.60;64.00;;;;;;5094535;28;20035;-79
2022/08/31 12:11:56;;;;;;;0.00;0.00;;;28.60;62.20;;;;;;5095460;28;20023;-78
2022/08/31 12:14:33;;;;;;;0.13;0.13;;;28.70;63.20;;;;;;5016602;28;20029;-77
2022/08/31 12:17:26;;;;;;;0.45;0.17;;;29.60;60.10;;;;;;5022961;28;20041;-74
2022/08/31 12:20:21;;;;;;;0.17;0.17;;;30.60;58.60;;;;;;5087665;28;20372;-79
2022/08/31 12:26:23;;;;;;;0.10;0.10;;;31.10;57.70;;;;;;5103918;28;20019;-78
2022/08/31 12:29:15;;;;;;;0.40;0.40;;;30.70;58.10;;;;;;5100555;28;20046;-77
2022/08/31 12:31:55;;;;;;;0.15;0.15;;;31.00;55.70;;;;;;5094542;28;20035;-75
2022/08/31 12:34:21;;;;;;;1.10;0.30;;;30.80;56.00;;;;;;5104351;28;20020;-76
2022/08/31 12:36:47;;;;;;;0.30;0.30;;;31.10;55.30;;;;;;5101725;28;20041;-79
2022/08/31 12:39:23;;;;;;;0.25;0.10;;;30.40;54.00;;;;;;5099437;28;20035;-77
2022/08/31 12:41:52;;;;;;;0.38;0.00;;;30.70;55.90;;;;;;5104662;28;20020;-77
2022/08/31 12:44:21;;;;;;;1.45;0.25;;;30.70;56.50;;;;;;5104460;28;20380;-77
2022/08/31 12:46:56;;;;;;;;;;;30.70;55.40;;;;;;5103522;28;20079;-74
2022/08/31 12:49:58;;;;;;;0.10;0.10;;;31.10;54.20;;;;;;5103566;28;19908;-78
2022/08/31 12:52:48;;;;;;;0.52;0.52;;;31.80;52.60;;;;;;5102597;28;20024;-75
2022/08/31 12:55:42;;;;;;;0.30;0.17;;;32.50;51.60;;;;;;5096099;28;20020;-76
2022/08/31 12:58:22;;;;;;;1.60;0.20;;;32.20;51.80;;;;;;5101357;28;20066;-76
2022/08/31 13:00:49;;;;;;;0.28;0.00;;;31.60;52.60;;;;;;5097901;28;20028;-78
2022/08/31 13:03:25;;;;;;;0.13;0.13;;;31.80;54.20;;;;;;5102209;28;20077;-75
2022/08/31 13:06:12;;;;;;;0.10;0.10;;;32.20;50.90;;;;;;5103841;28;20031;-75
2022/08/31 13:08:47;;;;;;;0.30;0.30;;;30.90;53.90;;;;;;5096054;28;20032;-77
2022/08/31 13:11:25;;;;;;;0.60;0.25;;;30.20;55.60;;;;;;5103535;28;20043;-76
2022/08/31 13:14:25;;;;;;;0.40;0.40;;;29.30;57.70;;;;;;5103717;28;20312;-77
2022/08/31 13:17:05;;;;;;;0.40;0.40;;;28.40;56.80;;;;;;5103293;28;20020;-78
2022/08/31 13:19:33;;;;;;;1.23;0.98;;;27.10;61.00;;;;;;5103284;28;20044;-77
2022/08/31 13:22:06;;;;;;;0.13;0.13;;;26.60;61.40;;;;;;5103016;28;20323;-77
2022/08/31 13:24:42;;;;;;;0.50;0.50;;;26.20;61.50;;;;;;5102336;28;20324;-75